createdAt,value
2022-11-14T00:00:13.737Z,14.07
2022-11-14T00:02:36.118Z,14.04
2022-11-14T00:04:38.035Z,14.15
2022-11-14T00:06:40.329Z,14.11
2022-11-14T00:08:42.124Z,14.25
2022-11-14T00:10:46.650Z,14.22
2022-11-14T00:12:48.807Z,14.35
2022-11-14T00:14:51.795Z,14.25
2022-11-14T00:16:53.465Z,14.32
2022-11-14T00:18:55.709Z,14.10
2022-11-14T00:20:57.485Z,14.05
2022-11-14T00:22:59.311Z,14.21
2022-11-14T00:25:01.693Z,14.14
2022-11-14T00:27:03.651Z,14.26
2022-11-14T00:29:05.523Z,14.33
2022-11-14T00:31:09.928Z,14.24
2022-11-14T00:33:14.754Z,14.17
2022-11-14T00:35:20.697Z,14.26
2022-11-14T00:37:22.889Z,14.18
2022-11-14T00:39:24.958Z,14.24
2022-11-14T00:41:27.033Z,14.32
2022-11-14T00:43:29.238Z,14.25
2022-11-14T00:45:31.417Z,14.32
2022-11-14T00:47:33.200Z,14.24
2022-11-14T00:49:36.303Z,14.09
2022-11-14T00:51:38.091Z,14.12
2022-11-14T00:53:40.117Z,14.22
2022-11-14T00:55:43.548Z,14.25
2022-11-14T00:57:45.431Z,14.25
2022-11-14T00:59:47.300Z,14.15
2022-11-14T01:01:51.964Z,13.95
2022-11-14T01:03:56.010Z,13.99
2022-11-14T01:05:57.919Z,14.07
2022-11-14T01:08:00.118Z,14.15
2022-11-14T01:10:01.966Z,14.13
2022-11-14T01:12:04.143Z,14.16
2022-11-14T01:14:07.667Z,14.20
2022-11-14T01:16:10.166Z,14.01
2022-11-14T01:18:15.197Z,14.12
2022-11-14T01:20:17.506Z,14.11
2022-11-14T01:22:19.296Z,13.92
2022-11-14T01:24:21.093Z,14.08
2022-11-14T01:26:23.243Z,13.91
2022-11-14T01:28:25.039Z,13.94
2022-11-14T01:30:26.852Z,14.02
2022-11-14T01:32:28.975Z,13.99
2022-11-14T01:34:31.148Z,13.98
2022-11-14T01:36:32.934Z,13.94
2022-11-14T01:38:35.702Z,13.96
2022-11-14T01:40:43.108Z,13.98
2022-11-14T01:43:19.214Z,14.01
2022-11-14T01:45:52.087Z,13.93
2022-11-14T01:47:53.932Z,13.97
2022-11-14T01:50:00.854Z,13.97
2022-11-14T01:52:07.158Z,13.95
2022-11-14T01:54:15.670Z,13.94
2022-11-14T01:56:22.767Z,14.00
2022-11-14T01:58:28.433Z,14.05
2022-11-14T02:00:30.371Z,13.87
2022-11-14T02:02:32.544Z,14.01
2022-11-14T02:04:39.359Z,14.36
2022-11-14T02:06:41.838Z,14.33
2022-11-14T02:08:44.818Z,14.33
2022-11-14T02:10:46.927Z,14.22
2022-11-14T02:12:49.701Z,14.35
2022-11-14T02:14:56.198Z,14.24
2022-11-14T02:17:22.611Z,14.24
2022-11-14T02:19:20.329Z,14.16
2022-11-14T02:21:22.366Z,14.25
2022-11-14T02:23:29.959Z,14.33
2022-11-14T02:25:31.771Z,14.28
2022-11-14T02:27:34.983Z,14.23
2022-11-14T02:29:37.228Z,14.27
2022-11-14T02:31:39.036Z,14.35
2022-11-14T02:33:41.330Z,14.38
2022-11-14T02:35:43.504Z,14.30
2022-11-14T02:37:45.737Z,14.38
2022-11-14T02:39:48.267Z,14.36
2022-11-14T02:41:51.262Z,14.32
2022-11-14T02:43:53.027Z,14.22
2022-11-14T02:45:54.979Z,14.14
2022-11-14T02:47:57.140Z,14.31
2022-11-14T02:49:58.927Z,14.19
2022-11-14T02:52:00.788Z,14.24
2022-11-14T02:54:02.978Z,14.11
2022-11-14T02:56:05.194Z,14.12
2022-11-14T02:58:07.692Z,14.06
2022-11-14T03:00:14.817Z,13.79
2022-11-14T03:02:17.203Z,13.91
2022-11-14T03:04:19.051Z,14.04
2022-11-14T03:06:21.210Z,13.90
2022-11-14T03:08:23.137Z,13.92
2022-11-14T03:10:25.102Z,13.90
2022-11-14T03:12:27.288Z,13.88
2022-11-14T03:14:31.353Z,13.81
2022-11-14T03:16:33.162Z,13.76
2022-11-14T03:18:35.422Z,13.83
2022-11-14T03:20:37.877Z,13.91
2022-11-14T03:22:39.882Z,13.89
2022-11-14T03:24:42.184Z,13.95
2022-11-14T03:26:43.936Z,13.80
2022-11-14T03:28:45.948Z,13.86
2022-11-14T03:30:48.058Z,13.90
2022-11-14T03:32:49.953Z,13.87
2022-11-14T03:34:51.978Z,13.95
2022-11-14T03:36:54.163Z,13.97
2022-11-14T03:38:56.074Z,14.13
2022-11-14T03:40:59.130Z,14.01
2022-11-14T03:43:01.338Z,13.91
2022-11-14T03:45:03.643Z,13.79
2022-11-14T03:47:05.474Z,13.86
2022-11-14T03:49:07.898Z,13.83
2022-11-14T03:51:09.711Z,13.88
2022-11-14T03:53:11.626Z,13.99
2022-11-14T03:55:13.846Z,13.94
2022-11-14T03:57:15.640Z,14.03
2022-11-14T03:59:17.501Z,14.06
2022-11-14T04:01:19.959Z,13.88
2022-11-14T04:03:25.646Z,13.97
2022-11-14T04:05:27.849Z,13.98
2022-11-14T04:07:30.197Z,13.85
2022-11-14T04:09:32.038Z,13.97
2022-11-14T04:11:33.979Z,13.62
2022-11-14T04:13:36.305Z,13.59
2022-11-14T04:15:38.155Z,13.70
2022-11-14T04:17:40.229Z,13.81
2022-11-14T04:19:42.379Z,13.82
2022-11-14T04:21:44.256Z,13.91
2022-11-14T04:23:46.179Z,13.85
2022-11-14T04:25:48.436Z,13.75
2022-11-14T04:27:50.228Z,13.72
2022-11-14T04:29:52.228Z,13.33
2022-11-14T04:31:54.648Z,13.60
2022-11-14T04:33:56.605Z,13.64
2022-11-14T04:35:58.584Z,13.80
2022-11-14T04:38:00.919Z,13.59
2022-11-14T04:40:03.419Z,13.73
2022-11-14T04:42:05.288Z,13.90
2022-11-14T04:44:07.523Z,13.83
2022-11-14T04:46:09.501Z,13.73
2022-11-14T04:48:12.119Z,13.76
2022-11-14T04:50:14.370Z,13.75
2022-11-14T04:52:16.619Z,13.76
2022-11-14T04:54:18.434Z,13.89
2022-11-14T04:56:23.255Z,13.68
2022-11-14T04:58:25.196Z,13.69
2022-11-14T05:00:27.495Z,13.79
2022-11-14T05:02:32.454Z,13.69
2022-11-14T05:04:34.339Z,13.82
2022-11-14T05:06:36.155Z,13.80
2022-11-14T05:08:38.409Z,13.92
2022-11-14T05:10:44.360Z,13.84
2022-11-14T05:12:46.426Z,13.76
2022-11-14T05:14:48.883Z,13.81
2022-11-14T05:16:50.687Z,13.84
2022-11-14T05:18:54.992Z,13.65
2022-11-14T05:21:01.330Z,13.67
2022-11-14T05:23:03.717Z,13.63
2022-11-14T05:25:06.722Z,13.63
2022-11-14T05:27:08.865Z,13.56
2022-11-14T05:29:10.794Z,13.70
2022-11-14T05:31:15.360Z,13.81
2022-11-14T05:33:17.759Z,13.94
2022-11-14T05:35:19.988Z,13.73
2022-11-14T05:37:21.907Z,13.83
2022-11-14T05:39:24.184Z,13.71
2022-11-14T05:41:26.036Z,13.74
2022-11-14T05:43:29.646Z,13.79
2022-11-14T05:45:31.845Z,13.90
2022-11-14T05:47:33.661Z,13.85
2022-11-14T05:49:35.428Z,13.87
2022-11-14T05:51:37.803Z,13.65
2022-11-14T05:53:40.439Z,13.74
2022-11-14T05:55:42.407Z,13.71
2022-11-14T05:57:44.525Z,13.71
2022-11-14T05:59:46.455Z,13.78
2022-11-14T06:01:48.373Z,13.86
2022-11-14T06:03:51.032Z,13.82
2022-11-14T06:05:52.779Z,13.95
2022-11-14T06:07:59.255Z,13.89
2022-11-14T06:10:01.460Z,13.91
2022-11-14T06:12:06.309Z,13.78
2022-11-14T06:14:10.924Z,13.64
2022-11-14T06:16:16.463Z,13.73
2022-11-14T06:18:18.301Z,13.75
2022-11-14T06:20:21.047Z,13.86
2022-11-14T06:22:24.615Z,13.72
2022-11-14T06:24:27.522Z,13.78
2022-11-14T06:26:31.623Z,13.67
2022-11-14T06:28:34.265Z,13.67
2022-11-14T06:30:36.167Z,13.59
2022-11-14T06:32:37.952Z,13.54
2022-11-14T06:34:40.162Z,13.61
2022-11-14T06:36:41.973Z,13.55
2022-11-14T06:38:44.214Z,13.54
2022-11-14T06:40:46.369Z,13.63
2022-11-14T06:42:51.099Z,13.53
2022-11-14T06:44:52.885Z,13.48
2022-11-14T06:46:56.482Z,13.69
2022-11-14T06:48:58.341Z,13.48
2022-11-14T06:51:01.662Z,13.51
2022-11-14T06:53:04.193Z,13.63
2022-11-14T06:55:06.630Z,13.72
2022-11-14T06:57:08.419Z,13.77
2022-11-14T06:59:10.580Z,13.67
2022-11-14T07:01:21.120Z,13.52
2022-11-14T07:03:24.073Z,13.81
2022-11-14T07:05:26.358Z,14.04
2022-11-14T07:07:28.965Z,13.97
2022-11-14T07:09:31.275Z,13.88
2022-11-14T07:11:35.296Z,13.72
2022-11-14T07:13:38.363Z,13.58
2022-11-14T07:15:40.475Z,13.54
2022-11-14T07:17:42.616Z,13.53
2022-11-14T07:19:44.778Z,13.34
2022-11-14T07:21:46.934Z,13.16
2022-11-14T07:23:49.285Z,13.23
2022-11-14T07:25:51.415Z,12.97
2022-11-14T07:27:53.774Z,13.23
2022-11-14T07:29:56.041Z,13.28
2022-11-14T07:31:58.111Z,13.36
2022-11-14T07:34:00.059Z,13.44
2022-11-14T07:36:02.647Z,13.54
2022-11-14T07:38:04.692Z,13.39
2022-11-14T07:40:07.438Z,13.43
2022-11-14T07:42:09.673Z,13.31
2022-11-14T07:44:11.831Z,13.29
2022-11-14T07:46:15.922Z,13.29
2022-11-14T07:48:18.496Z,13.28
2022-11-14T07:50:20.750Z,13.18
2022-11-14T07:52:22.839Z,12.76
2022-11-14T07:54:25.015Z,13.19
2022-11-14T07:56:26.840Z,13.34
2022-11-14T07:58:29.083Z,13.52
2022-11-14T08:00:31.679Z,13.36
2022-11-14T08:02:33.859Z,13.31
2022-11-14T08:04:35.641Z,13.52
2022-11-14T08:06:37.831Z,13.42
2022-11-14T08:08:39.753Z,13.51
2022-11-14T08:10:41.671Z,13.33
2022-11-14T08:12:44.604Z,13.51
2022-11-14T08:14:46.494Z,13.33
2022-11-14T08:16:48.288Z,13.62
2022-11-14T08:18:50.399Z,13.56
2022-11-14T08:20:52.658Z,13.69
2022-11-14T08:23:01.330Z,13.74
2022-11-14T08:25:03.723Z,13.65
2022-11-14T08:27:05.501Z,13.40
2022-11-14T08:29:07.459Z,13.49
2022-11-14T08:31:10.416Z,13.78
2022-11-14T08:33:12.256Z,13.88
2022-11-14T08:35:14.407Z,13.91
2022-11-14T08:37:16.733Z,13.81
2022-11-14T08:39:18.500Z,13.79
2022-11-14T08:41:20.323Z,13.85
2022-11-14T08:43:22.590Z,13.99
2022-11-14T08:45:24.342Z,13.79
2022-11-14T08:47:26.130Z,13.87
2022-11-14T08:49:28.595Z,13.92
2022-11-14T08:51:30.671Z,13.39
2022-11-14T08:53:33.574Z,13.34
2022-11-14T08:55:36.024Z,13.28
2022-11-14T08:57:37.830Z,13.27
2022-11-14T08:59:39.652Z,13.32
2022-11-14T09:01:41.876Z,13.60
2022-11-14T09:03:44.115Z,13.87
2022-11-14T09:05:52.805Z,13.96
2022-11-14T09:07:54.986Z,13.87
2022-11-14T09:09:56.804Z,13.75
2022-11-14T09:11:58.811Z,13.53
2022-11-14T09:14:02.770Z,13.72
2022-11-14T09:16:04.872Z,13.51
2022-11-14T09:18:06.942Z,13.94
2022-11-14T09:20:09.520Z,13.69
2022-11-14T09:22:11.324Z,13.82
2022-11-14T09:24:13.232Z,13.41
2022-11-14T09:26:15.464Z,13.61
2022-11-14T09:28:17.315Z,13.59
2022-11-14T09:30:19.316Z,13.64
2022-11-14T09:32:21.468Z,13.69
2022-11-14T09:34:23.241Z,13.80
2022-11-14T09:36:25.126Z,13.62
2022-11-14T09:38:28.257Z,13.94
2022-11-14T09:40:34.393Z,13.95
2022-11-14T09:42:39.046Z,13.99
2022-11-14T09:45:02.547Z,14.04
2022-11-14T09:47:32.946Z,13.97
2022-11-14T09:49:38.922Z,13.70
2022-11-14T09:51:51.030Z,13.79
2022-11-14T09:54:16.843Z,13.76
2022-11-14T09:56:27.567Z,13.50
2022-11-14T09:58:29.952Z,13.79
2022-11-14T10:00:51.753Z,13.68
2022-11-14T10:03:12.288Z,13.88
2022-11-14T10:05:48.870Z,13.99
2022-11-14T10:08:19.073Z,14.17
2022-11-14T10:10:39.782Z,13.97
2022-11-14T10:13:08.112Z,14.14
2022-11-14T10:15:20.596Z,14.10
2022-11-14T10:17:42.148Z,14.10
2022-11-14T10:20:16.830Z,14.10
2022-11-14T10:22:31.548Z,14.08
2022-11-14T10:24:49.500Z,13.70
2022-11-14T10:27:06.156Z,13.81
2022-11-14T10:29:33.779Z,13.83
2022-11-14T10:32:03.024Z,13.92
2022-11-14T10:34:26.630Z,14.04
2022-11-14T10:36:44.177Z,13.84
2022-11-14T10:39:12.663Z,13.75
2022-11-14T10:41:34.607Z,13.97
2022-11-14T10:43:49.637Z,14.16
2022-11-14T10:46:00.359Z,13.97
2022-11-14T10:48:16.711Z,13.88
2022-11-14T10:50:47.582Z,14.01
2022-11-14T10:52:56.116Z,14.10
2022-11-14T10:55:03.580Z,14.12
2022-11-14T10:57:15.154Z,13.91
2022-11-14T10:59:18.028Z,13.99
2022-11-14T11:01:42.947Z,14.18
2022-11-14T11:03:44.787Z,14.06
2022-11-14T11:05:54.921Z,14.18
2022-11-14T11:11:01.927Z,14.10
2022-11-14T11:13:04.129Z,13.81
2022-11-14T11:15:19.735Z,13.94
2022-11-14T11:17:22.968Z,13.96
2022-11-14T11:19:27.344Z,14.22
2022-11-14T11:21:47.935Z,13.96
2022-11-14T11:23:54.944Z,14.18
2022-11-14T11:26:16.211Z,14.08
2022-11-14T11:28:21.255Z,14.18
2022-11-14T11:30:26.294Z,13.98
2022-11-14T11:32:29.271Z,14.01
2022-11-14T11:34:33.318Z,14.04
2022-11-14T11:36:41.584Z,13.69
2022-11-14T11:38:45.215Z,13.97
2022-11-14T11:40:51.662Z,13.71
2022-11-14T11:45:19.614Z,13.62
2022-11-14T11:47:21.609Z,13.96
2022-11-14T11:49:52.910Z,14.35
2022-11-14T11:51:57.166Z,14.40
2022-11-14T11:54:07.197Z,14.50
2022-11-14T11:56:15.888Z,14.31
2022-11-14T11:58:26.105Z,14.30
2022-11-14T12:00:28.348Z,14.29
2022-11-14T12:02:30.537Z,14.06
2022-11-14T12:04:32.782Z,14.06
2022-11-14T12:06:45.108Z,14.24
2022-11-14T12:09:02.688Z,14.11
2022-11-14T12:11:10.851Z,14.10
2022-11-14T12:13:48.082Z,14.14
2022-11-14T12:16:15.034Z,14.20
2022-11-14T12:19:04.166Z,14.23
2022-11-14T12:21:22.309Z,13.90
2022-11-14T12:23:33.656Z,14.05
2022-11-14T12:25:57.664Z,13.94
2022-11-14T12:28:19.514Z,14.34
2022-11-14T12:30:24.340Z,14.49
2022-11-14T12:32:35.410Z,14.31
2022-11-14T12:34:42.154Z,14.24
2022-11-14T12:36:46.058Z,14.31
2022-11-14T12:38:55.649Z,14.11
2022-11-14T12:41:00.360Z,14.10
2022-11-14T12:43:03.970Z,13.97
2022-11-14T12:45:40.967Z,13.93
2022-11-14T12:48:21.178Z,13.93
2022-11-14T12:50:39.577Z,13.66
2022-11-14T12:52:41.380Z,13.54
2022-11-14T12:54:49.339Z,13.41
2022-11-14T12:57:01.225Z,13.25
2022-11-14T12:59:37.833Z,13.38
2022-11-14T13:01:51.997Z,13.50
2022-11-14T13:04:18.230Z,13.27
2022-11-14T13:06:26.889Z,13.21
2022-11-14T13:08:54.579Z,13.10
2022-11-14T13:10:56.865Z,13.07
2022-11-14T13:13:29.439Z,12.96
2022-11-14T13:15:53.088Z,12.66
2022-11-14T13:18:23.327Z,12.98
2022-11-14T13:20:49.115Z,13.09
2022-11-14T13:22:51.315Z,13.16
2022-11-14T13:24:59.003Z,13.12
2022-11-14T13:27:39.220Z,12.98
2022-11-14T13:29:48.695Z,13.04
2022-11-14T13:31:51.341Z,13.03
2022-11-14T13:33:59.136Z,12.97
2022-11-14T13:36:05.887Z,12.88
2022-11-14T13:38:41.677Z,13.08
2022-11-14T13:41:24.405Z,13.32
2022-11-14T13:44:04.073Z,12.96
2022-11-14T13:46:08.733Z,13.02
2022-11-14T13:48:53.587Z,13.02
2022-11-14T13:51:10.199Z,12.90
2022-11-14T13:53:28.811Z,12.66
2022-11-14T13:55:51.758Z,12.84
2022-11-14T13:58:15.899Z,12.82
2022-11-14T14:00:21.111Z,12.88
2022-11-14T14:03:02.550Z,12.94
2022-11-14T14:05:32.127Z,12.92
2022-11-14T14:07:52.783Z,12.87
2022-11-14T14:10:03.024Z,12.72
2022-11-14T14:12:27.690Z,13.07
2022-11-14T14:15:01.712Z,13.05
2022-11-14T14:17:29.751Z,12.91
2022-11-14T14:20:01.335Z,12.91
2022-11-14T14:22:20.830Z,13.06
2022-11-14T14:24:42.213Z,13.19
2022-11-14T14:27:08.283Z,13.03
2022-11-14T14:29:19.470Z,13.01
2022-11-14T14:31:25.040Z,12.86
2022-11-14T14:33:27.074Z,12.86
2022-11-14T14:35:38.799Z,12.95
2022-11-14T14:37:50.805Z,12.87
2022-11-14T14:40:08.969Z,12.79
2022-11-14T14:42:12.256Z,12.51
2022-11-14T14:44:25.587Z,12.61
2022-11-14T14:46:30.608Z,12.42
2022-11-14T14:48:36.360Z,12.51
2022-11-14T14:50:41.815Z,12.54
2022-11-14T14:52:43.659Z,12.72
2022-11-14T14:54:54.981Z,12.67
2022-11-14T14:57:02.936Z,12.66
2022-11-14T14:59:24.860Z,12.69
2022-11-14T15:01:35.536Z,12.60
2022-11-14T15:03:41.121Z,12.58
2022-11-14T15:05:43.050Z,12.70
2022-11-14T15:07:46.490Z,12.44
2022-11-14T15:09:56.646Z,12.13
2022-11-14T15:12:01.464Z,12.14
2022-11-14T15:14:03.660Z,12.24
2022-11-14T15:16:07.526Z,12.13
2022-11-14T15:18:22.525Z,12.07
2022-11-14T15:20:29.543Z,11.80
2022-11-14T15:22:33.141Z,11.89
2022-11-14T15:24:34.983Z,11.91
2022-11-14T15:26:36.806Z,11.96
2022-11-14T15:28:39.029Z,12.13
2022-11-14T15:30:41.054Z,11.91
2022-11-14T15:32:50.035Z,11.80
2022-11-14T15:35:25.935Z,12.08
2022-11-14T15:37:28.598Z,12.15
2022-11-14T15:39:30.702Z,12.21
2022-11-14T15:41:34.155Z,12.34
2022-11-14T15:43:42.706Z,12.16
2022-11-14T15:45:44.674Z,12.18
2022-11-14T15:47:46.931Z,12.47
2022-11-14T15:50:03.011Z,12.30
2022-11-14T15:52:06.008Z,12.30
2022-11-14T15:54:20.830Z,12.19
2022-11-14T15:56:22.578Z,12.11
2022-11-14T15:58:41.208Z,11.91
2022-11-14T16:00:50.991Z,12.26
2022-11-14T16:02:58.320Z,12.45
2022-11-14T16:05:01.531Z,12.45
2022-11-14T16:07:04.187Z,12.17
2022-11-14T16:09:06.299Z,12.41
2022-11-14T16:11:08.370Z,12.20
2022-11-14T16:13:11.336Z,12.26
2022-11-14T16:15:13.353Z,12.35
2022-11-14T16:17:17.519Z,12.34
2022-11-14T16:19:21.939Z,12.17
2022-11-14T16:21:23.971Z,11.88
2022-11-14T16:23:25.944Z,12.19
2022-11-14T16:25:30.114Z,12.23
2022-11-14T16:27:31.877Z,12.13
2022-11-14T16:29:33.795Z,12.09
2022-11-14T16:31:36.571Z,11.90
2022-11-14T16:33:38.392Z,12.01
2022-11-14T16:35:40.287Z,12.14
2022-11-14T16:37:42.944Z,12.11
2022-11-14T16:39:44.771Z,12.28
2022-11-14T16:41:46.660Z,12.18
2022-11-14T16:43:48.854Z,12.26
2022-11-14T16:45:50.748Z,12.48
2022-11-14T16:47:53.304Z,12.37
2022-11-14T16:49:55.540Z,12.35
2022-11-14T16:51:58.527Z,11.92
2022-11-14T16:54:00.235Z,12.31
2022-11-14T16:56:02.452Z,12.07
2022-11-14T16:58:04.268Z,11.71
2022-11-14T17:00:12.441Z,11.88
2022-11-14T17:02:16.305Z,11.71
2022-11-14T17:04:18.199Z,11.81
2022-11-14T17:06:20.129Z,11.65
2022-11-14T17:08:22.370Z,11.66
2022-11-14T17:10:24.141Z,11.94
2022-11-14T17:12:26.562Z,12.01
2022-11-14T17:14:30.161Z,12.02
2022-11-14T17:16:32.006Z,11.98
2022-11-14T17:18:38.337Z,11.98
2022-11-14T17:20:41.035Z,11.74
2022-11-14T17:22:42.940Z,11.89
2022-11-14T17:24:44.838Z,11.82
2022-11-14T17:26:47.002Z,11.94
2022-11-14T17:28:48.907Z,12.05
2022-11-14T17:30:50.771Z,12.13
2022-11-14T17:32:56.478Z,12.04
2022-11-14T17:34:58.505Z,12.19
2022-11-14T17:37:00.374Z,11.99
2022-11-14T17:39:02.590Z,12.17
2022-11-14T17:41:06.064Z,12.23
2022-11-14T17:43:07.981Z,12.13
2022-11-14T17:45:10.218Z,11.92
2022-11-14T17:47:12.022Z,11.67
2022-11-14T17:49:13.872Z,11.83
2022-11-14T17:51:17.213Z,11.94
2022-11-14T17:53:19.867Z,11.86
2022-11-14T17:55:21.657Z,11.83
2022-11-14T17:57:23.859Z,11.83
2022-11-14T17:59:25.643Z,11.93
2022-11-14T18:01:28.840Z,11.72
2022-11-14T18:03:31.183Z,11.86
2022-11-14T18:05:33.945Z,11.89
2022-11-14T18:07:36.005Z,11.98
2022-11-14T18:09:38.969Z,11.80
2022-11-14T18:11:40.756Z,11.93
2022-11-14T18:13:42.910Z,11.99
2022-11-14T18:15:45.102Z,11.53
2022-11-14T18:17:46.929Z,11.77
2022-11-14T18:19:48.977Z,11.73
2022-11-14T18:21:53.537Z,11.75
2022-11-14T18:23:58.401Z,12.02
2022-11-14T18:26:00.408Z,12.18
2022-11-14T18:28:02.551Z,12.03
2022-11-14T18:30:20.138Z,12.02
2022-11-14T18:32:27.029Z,11.70
2022-11-14T18:34:29.493Z,11.76
2022-11-14T18:36:31.583Z,11.57
2022-11-14T18:38:33.998Z,11.82
2022-11-14T18:40:36.355Z,11.96
2022-11-14T18:42:38.258Z,11.91
2022-11-14T18:44:40.098Z,12.01
2022-11-14T18:46:42.434Z,11.87
2022-11-14T18:48:47.179Z,11.77
2022-11-14T18:50:49.522Z,11.77
2022-11-14T18:52:52.085Z,11.93
2022-11-14T18:54:54.225Z,12.03
2022-11-14T18:56:56.260Z,12.14
2022-11-14T18:58:58.590Z,12.07
2022-11-14T19:01:22.048Z,12.06
2022-11-14T19:03:24.054Z,12.11
2022-11-14T19:05:26.623Z,11.70
2022-11-14T19:07:29.608Z,11.85
2022-11-14T19:09:31.581Z,12.08
2022-11-14T19:11:52.487Z,12.14
2022-11-14T19:13:54.335Z,12.07
2022-11-14T19:16:06.442Z,11.74
2022-11-14T19:18:08.658Z,11.70
2022-11-14T19:20:14.355Z,11.91
2022-11-14T19:22:17.332Z,11.93
2022-11-14T19:24:19.542Z,11.91
2022-11-14T19:26:22.640Z,11.93
2022-11-14T19:28:25.772Z,11.68
2022-11-14T19:30:28.229Z,11.86
2022-11-14T19:32:30.069Z,11.77
2022-11-14T19:34:32.127Z,11.83
2022-11-14T19:38:57.856Z,11.95
2022-11-14T19:41:08.636Z,11.85
2022-11-14T19:43:13.844Z,11.87
2022-11-14T19:45:15.727Z,11.82
2022-11-14T19:47:17.554Z,11.76
2022-11-14T19:49:20.175Z,11.73
2022-11-14T19:51:22.660Z,11.87
2022-11-14T19:53:24.476Z,11.88
2022-11-14T19:55:26.669Z,11.61
2022-11-14T19:57:31.027Z,11.71
2022-11-14T19:59:33.003Z,11.67
2022-11-14T20:01:35.229Z,11.35
2022-11-14T20:03:37.132Z,11.49
2022-11-14T20:05:38.925Z,11.50
2022-11-14T20:07:41.081Z,11.65
2022-11-14T20:09:43.084Z,11.47
2022-11-14T20:11:45.680Z,11.58
2022-11-14T20:13:48.233Z,11.64
2022-11-14T20:15:50.317Z,11.53
2022-11-14T20:17:52.485Z,11.30
2022-11-14T20:19:54.405Z,11.44
2022-11-14T20:21:56.284Z,11.38
2022-11-14T20:23:59.000Z,11.56
2022-11-14T20:26:01.211Z,11.41
2022-11-14T20:28:03.246Z,11.63
2022-11-14T20:30:05.997Z,11.73
2022-11-14T20:32:11.655Z,11.77
2022-11-14T20:34:17.411Z,11.71
2022-11-14T20:36:22.326Z,11.81
2022-11-14T20:38:24.194Z,11.73
2022-11-14T20:40:26.070Z,11.72
2022-11-14T20:42:28.517Z,11.82
2022-11-14T20:44:30.367Z,11.92
2022-11-14T20:46:32.414Z,11.83
2022-11-14T20:48:35.330Z,11.92
2022-11-14T20:50:37.218Z,11.94
2022-11-14T20:52:39.409Z,11.98
2022-11-14T20:54:41.817Z,12.06
2022-11-14T20:56:43.635Z,12.15
2022-11-14T20:58:47.559Z,11.95
2022-11-14T21:00:50.710Z,11.78
2022-11-14T21:02:53.793Z,11.67
2022-11-14T21:04:55.600Z,11.71
2022-11-14T21:06:57.873Z,11.72
2022-11-14T21:08:59.883Z,11.56
2022-11-14T21:11:05.104Z,11.59
2022-11-14T21:13:26.957Z,11.64
2022-11-14T21:15:28.775Z,11.65
2022-11-14T21:17:31.685Z,11.45
2022-11-14T21:19:33.912Z,11.63
2022-11-14T21:21:37.784Z,11.47
2022-11-14T21:23:39.613Z,11.55
2022-11-14T21:25:41.746Z,11.46
2022-11-14T21:27:43.596Z,11.49
2022-11-14T21:29:45.449Z,11.41
2022-11-14T21:31:47.773Z,11.56
2022-11-14T21:33:52.471Z,11.47
2022-11-14T21:35:54.724Z,11.59
2022-11-14T21:37:56.857Z,11.60
2022-11-14T21:39:58.769Z,11.67
2022-11-14T21:42:00.577Z,11.53
2022-11-14T21:44:03.639Z,11.30
2022-11-14T21:46:07.614Z,11.37
2022-11-14T21:48:09.534Z,11.30
2022-11-14T21:50:11.752Z,11.23
2022-11-14T21:52:13.528Z,11.23
2022-11-14T21:54:15.442Z,11.32
2022-11-14T21:56:22.197Z,11.38
2022-11-14T21:58:24.017Z,11.46
2022-11-14T22:00:25.890Z,11.48
2022-11-14T22:02:46.676Z,11.49
2022-11-14T22:04:48.444Z,11.69
2022-11-14T22:06:50.317Z,11.46
2022-11-14T22:08:54.270Z,11.78
2022-11-14T22:11:01.193Z,11.46
2022-11-14T22:13:02.996Z,11.70
2022-11-14T22:15:05.763Z,11.64
2022-11-14T22:17:07.579Z,11.64
2022-11-14T22:19:09.383Z,11.59
2022-11-14T22:21:12.495Z,11.62
2022-11-14T22:23:15.313Z,11.87
2022-11-14T22:25:17.118Z,11.67
2022-11-14T22:27:19.357Z,11.51
2022-11-14T22:29:21.164Z,11.46
2022-11-14T22:31:24.015Z,11.52
2022-11-14T22:33:26.175Z,11.27
2022-11-14T22:35:28.069Z,10.97
2022-11-14T22:37:32.681Z,11.25
2022-11-14T22:39:34.865Z,11.09
2022-11-14T22:41:36.681Z,11.38
2022-11-14T22:43:38.779Z,11.42
2022-11-14T22:45:40.908Z,11.44
2022-11-14T22:47:42.786Z,11.34
2022-11-14T22:49:44.593Z,11.43
2022-11-14T22:51:46.890Z,11.57
2022-11-14T22:53:50.851Z,11.61
2022-11-14T22:55:52.777Z,11.51
2022-11-14T22:57:54.907Z,11.51
2022-11-14T22:59:56.785Z,11.25
2022-11-14T23:01:58.595Z,11.29
2022-11-14T23:04:03.525Z,11.42
2022-11-14T23:06:13.862Z,11.33
2022-11-14T23:08:17.635Z,11.54
2022-11-14T23:10:19.878Z,11.55
2022-11-14T23:12:21.786Z,11.63
2022-11-14T23:14:23.572Z,11.52
2022-11-14T23:16:28.311Z,11.63
2022-11-14T23:18:30.137Z,11.55
2022-11-14T23:20:34.668Z,11.51
2022-11-14T23:22:36.808Z,11.29
2022-11-14T23:24:38.605Z,11.38
2022-11-14T23:26:40.421Z,11.32
2022-11-14T23:28:43.020Z,11.36
2022-11-14T23:30:44.803Z,11.14
2022-11-14T23:32:46.952Z,11.02
2022-11-14T23:34:49.391Z,11.27
2022-11-14T23:36:51.295Z,11.30
2022-11-14T23:38:53.976Z,11.24
2022-11-14T23:40:56.824Z,11.37
2022-11-14T23:42:58.738Z,11.47
2022-11-14T23:45:00.652Z,11.38
2022-11-14T23:47:03.138Z,11.60
2022-11-14T23:49:05.161Z,11.46
2022-11-14T23:51:07.253Z,11.38
2022-11-14T23:53:10.454Z,11.48
2022-11-14T23:55:12.234Z,11.45
2022-11-14T23:57:14.036Z,11.51
2022-11-14T23:59:16.249Z,11.55
